Time;durP1;ratioP1;P1;durP2;ratioP2;P2;SDS_P1;SDS_P2;PMS_P1;PMS_P2;Temp;Humidity;BMP_temperature;BMP_pressure;BME280_temperature;BME280_humidity;BME280_pressure;Samples;Min_cycle;Max_cycle;Signal;HPM_P1;HPM_P2
2023/02/12 00:02:00;;;;;;;20.67;11.10;;;;;;;;;;10315959;28;20202;-75
2023/02/12 00:07:00;;;;;;;22.40;10.50;;;;;;;;;;10297778;28;20485;-78
2023/02/12 00:12:01;;;;;;;20.60;10.30;;;;;;;;;;10299010;28;20045;-78
2023/02/12 00:17:02;;;;;;;17.42;9.30;;;;;;;;;;10298799;28;20022;-77
2023/02/12 00:22:02;;;;;;;20.13;10.73;;;;;;;;;;10307782;28;20096;-77
2023/02/12 00:27:03;;;;;;;24.00;9.15;;;;;;;;;;10325085;28;20385;-73
2023/02/12 00:32:03;;;;;;;16.63;9.32;;;;;;;;;;10307338;28;20397;-74
2023/02/12 00:37:03;;;;;;;17.10;9.77;;;;;;;;;;10306595;28;20061;-78
2023/02/12 00:42:03;;;;;;;20.67;10.98;;;;;;;;;;10323023;28;20048;-74
2023/02/12 00:47:04;;;;;;;19.33;9.77;;;;;;;;;;10306772;28;20089;-79
2023/02/12 00:52:04;;;;;;;18.63;9.80;;;;;;;;;;10307567;28;20111;-76
2023/02/12 00:57:04;;;;;;;20.92;11.32;;;;;;;;;;10306417;28;20027;-78
2023/02/12 01:02:05;;;;;;;17.20;10.75;;;;;;;;;;10306775;28;20017;-79
2023/02/12 01:07:05;;;;;;;21.55;9.48;;;;;;;;;;10323638;28;20073;-76
2023/02/12 01:12:06;;;;;;;16.88;9.23;;;;;;;;;;10323372;28;20173;-77
2023/02/12 01:17:08;;;;;;;17.63;9.45;;;;;;;;;;10305928;28;20101;-79
2023/02/12 01:22:08;;;;;;;16.63;9.48;;;;;;;;;;10321593;28;20750;-78
2023/02/12 01:27:08;;;;;;;20.70;8.60;;;;;;;;;;10305778;28;20022;-78
2023/02/12 01:32:09;;;;;;;19.63;10.18;;;;;;;;;;10316311;28;20084;-79
2023/02/12 01:37:10;;;;;;;18.08;9.50;;;;;;;;;;10317506;28;20034;-74
2023/02/12 01:42:14;;;;;;;26.53;11.27;;;;;;;;;;10312728;28;20026;-72
2023/02/12 01:47:17;;;;;;;19.58;10.75;;;;;;;;;;10316724;28;20042;-75
2023/02/12 01:52:20;;;;;;;22.92;10.82;;;;;;;;;;10323475;28;20030;-76
2023/02/12 01:57:21;;;;;;;22.00;11.10;;;;;;;;;;10304683;28;20030;-78
2023/02/12 02:02:22;;;;;;;24.20;10.85;;;;;;;;;;10303699;28;20030;-77
2023/02/12 02:07:22;;;;;;;20.03;10.43;;;;;;;;;;10320165;28;20026;-78
2023/02/12 02:17:45;;;;;;;22.88;10.98;;;;;;;;;;10321109;28;20022;-79
2023/02/12 02:23:04;;;;;;;29.90;13.02;;;;;;;;;;10293583;28;20022;-78
2023/02/12 02:28:23;;;;;;;24.10;13.68;;;;;;;;;;10301345;28;20026;-77
2023/02/12 02:33:28;;;;;;;30.35;15.38;;;;;;;;;;10302958;28;20225;-74
2023/02/12 02:38:34;;;;;;;28.17;14.35;;;;;;;;;;10302081;28;20107;-79
2023/02/12 02:43:42;;;;;;;24.63;12.25;;;;;;;;;;10318060;28;20053;-78
2023/02/12 02:48:48;;;;;;;27.93;13.33;;;;;;;;;;10318924;28;20185;-77
2023/02/12 02:53:52;;;;;;;20.83;12.98;;;;;;;;;;10302100;28;20104;-71
2023/02/12 02:58:56;;;;;;;27.42;12.10;;;;;;;;;;10302608;28;20022;-79
2023/02/12 03:03:56;;;;;;;25.98;13.57;;;;;;;;;;10300896;28;20026;-76
2023/02/12 03:09:00;;;;;;;25.38;13.13;;;;;;;;;;10317093;28;20084;-79
2023/02/12 03:14:10;;;;;;;26.65;12.30;;;;;;;;;;10301788;28;20065;-77
2023/02/12 03:19:14;;;;;;;26.58;13.25;;;;;;;;;;10301924;28;20100;-79
2023/02/12 03:24:31;;;;;;;32.95;15.63;;;;;;;;;;10311563;28;20085;-77
2023/02/12 03:29:31;;;;;;;30.17;16.25;;;;;;;;;;10317796;28;20361;-77
2023/02/12 03:34:32;;;;;;;27.63;13.37;;;;;;;;;;10301022;28;20026;-79
2023/02/12 03:39:37;;;;;;;31.73;14.52;;;;;;;;;;10317497;28;20022;-78
2023/02/12 03:44:49;;;;;;;31.33;14.05;;;;;;;;;;10301198;28;20104;-75
2023/02/12 03:49:56;;;;;;;31.20;15.15;;;;;;;;;;10318407;28;20453;-77
2023/02/12 03:54:57;;;;;;;25.63;13.57;;;;;;;;;;10306218;28;20084;-79
2023/02/12 03:59:57;;;;;;;31.70;14.07;;;;;;;;;;10324407;28;20022;-78
2023/02/12 04:05:03;;;;;;;30.98;13.82;;;;;;;;;;10292518;28;20033;-79
2023/02/12 04:10:03;;;;;;;28.85;14.38;;;;;;;;;;10335753;28;20030;-78
2023/02/12 04:15:16;;;;;;;31.20;15.15;;;;;;;;;;10308210;28;20508;-73
2023/02/12 04:20:35;;;;;;;33.80;14.38;;;;;;;;;;10304968;28;20033;-78
2023/02/12 04:25:58;;;;;;;29.95;14.38;;;;;;;;;;10304175;28;20469;-79
2023/02/12 04:31:05;;;;;;;26.70;14.40;;;;;;;;;;10323332;28;20034;-77
2023/02/12 04:36:08;;;;;;;28.83;15.40;;;;;;;;;;10319608;28;20022;-81
2023/02/12 04:41:08;;;;;;;31.55;15.52;;;;;;;;;;10321067;28;20105;-81
2023/02/12 04:46:08;;;;;;;26.92;13.15;;;;;;;;;;10306602;28;20057;-77
2023/02/12 04:51:09;;;;;;;34.03;16.05;;;;;;;;;;10306348;28;20037;-81
2023/02/12 04:56:12;;;;;;;31.67;13.97;;;;;;;;;;10306601;28;20026;-82
2023/02/12 05:01:12;;;;;;;35.85;15.35;;;;;;;;;;10305098;28;20633;-76
2023/02/12 05:06:13;;;;;;;31.48;14.98;;;;;;;;;;10322476;28;20022;-82
2023/02/12 05:11:13;;;;;;;31.75;14.88;;;;;;;;;;10304080;28;20524;-79
2023/02/12 05:16:13;;;;;;;31.00;14.43;;;;;;;;;;10307151;28;20459;-79
2023/02/12 05:21:14;;;;;;;31.38;15.80;;;;;;;;;;10305521;28;20092;-77
2023/02/12 05:26:15;;;;;;;28.67;13.77;;;;;;;;;;10316402;28;20033;-78
2023/02/12 05:31:17;;;;;;;32.60;13.73;;;;;;;;;;10305201;28;20370;-79
2023/02/12 05:36:22;;;;;;;31.05;11.48;;;;;;;;;;10304715;28;20022;-73
2023/02/12 05:41:23;;;;;;;25.05;11.95;;;;;;;;;;10319525;28;20026;-77
2023/02/12 05:46:23;;;;;;;28.50;12.80;;;;;;;;;;10304797;28;20093;-74
2023/02/12 05:51:24;;;;;;;27.75;13.60;;;;;;;;;;10304480;28;20019;-73
2023/02/12 05:56:26;;;;;;;25.90;12.23;;;;;;;;;;10313201;28;20121;-73
2023/02/12 06:01:29;;;;;;;32.47;14.88;;;;;;;;;;10303454;28;20056;-75
2023/02/12 06:06:29;;;;;;;31.63;15.13;;;;;;;;;;10303790;28;20026;-73
2023/02/12 06:11:30;;;;;;;32.80;14.32;;;;;;;;;;10301330;28;20022;-77
2023/02/12 06:16:30;;;;;;;22.63;12.40;;;;;;;;;;10299952;28;20480;-74
2023/02/12 06:21:31;;;;;;;30.52;13.68;;;;;;;;;;10320082;28;20101;-75
2023/02/12 06:26:31;;;;;;;26.80;12.98;;;;;;;;;;10302302;28;20034;-73
2023/02/12 06:31:32;;;;;;;21.58;11.73;;;;;;;;;;10347595;23;20130;-77
2023/02/12 06:36:33;;;;;;;26.77;12.60;;;;;;;;;;10359210;28;20026;-72
2023/02/12 06:41:33;;;;;;;25.53;11.67;;;;;;;;;;10356459;28;20022;-74
2023/02/12 06:46:33;;;;;;;26.00;11.77;;;;;;;;;;10358448;28;20088;-77
2023/02/12 06:51:37;;;;;;;27.07;12.53;;;;;;;;;;10357820;28;20024;-76
2023/02/12 06:56:37;;;;;;;26.25;11.88;;;;;;;;;;10354522;28;20674;-73
2023/02/12 07:01:37;;;;;;;27.27;11.23;;;;;;;;;;10343247;28;20029;-75
2023/02/12 07:06:37;;;;;;;22.42;11.05;;;;;;;;;;10336698;28;20064;-78
2023/02/12 07:11:38;;;;;;;21.42;11.52;;;;;;;;;;10346675;28;20037;-78
2023/02/12 07:16:38;;;;;;;25.90;12.17;;;;;;;;;;10349270;28;20026;-74
2023/02/12 07:21:38;;;;;;;33.50;13.82;;;;;;;;;;10348001;28;20147;-77
2023/02/12 07:26:39;;;;;;;33.70;13.10;;;;;;;;;;10353027;28;20034;-79
2023/02/12 07:31:40;;;;;;;24.67;11.90;;;;;;;;;;10357555;28;20203;-78
2023/02/12 07:36:41;;;;;;;27.90;14.52;;;;;;;;;;10358022;28;20034;-74
2023/02/12 07:41:42;;;;;;;35.97;14.63;;;;;;;;;;10356999;28;20044;-71
2023/02/12 07:46:43;;;;;;;29.70;14.73;;;;;;;;;;10354379;28;20065;-71
2023/02/12 07:51:44;;;;;;;30.92;13.27;;;;;;;;;;10352621;28;20177;-71
2023/02/12 07:56:47;;;;;;;28.42;14.77;;;;;;;;;;10353166;28;20037;-78
2023/02/12 08:01:48;;;;;;;28.10;15.35;;;;;;;;;;10356437;28;20079;-71
2023/02/12 08:06:50;;;;;;;32.22;15.93;;;;;;;;;;10347822;28;20397;-76
2023/02/12 08:11:50;;;;;;;32.15;14.80;;;;;;;;;;10353331;28;20095;-74
2023/02/12 08:16:51;;;;;;;35.75;16.17;;;;;;;;;;10349722;28;20092;-72
2023/02/12 08:21:52;;;;;;;30.90;15.80;;;;;;;;;;10352090;28;20448;-74
2023/02/12 08:26:52;;;;;;;32.50;16.20;;;;;;;;;;10355618;28;20026;-71
2023/02/12 08:32:00;;;;;;;37.55;17.70;;;;;;;;;;10355536;28;20550;-76
2023/02/12 08:37:01;;;;;;;35.38;17.27;;;;;;;;;;10344865;28;20025;-73
2023/02/12 08:42:01;;;;;;;34.75;18.08;;;;;;;;;;10355223;28;20038;-73
2023/02/12 08:47:01;;;;;;;40.23;18.93;;;;;;;;;;10352972;28;20104;-77
2023/02/12 08:52:02;;;;;;;37.13;17.67;;;;;;;;;;10353503;28;20277;-78
2023/02/12 08:57:02;;;;;;;45.27;20.33;;;;;;;;;;10354981;28;20394;-74
2023/02/12 09:02:07;;;;;;;35.25;18.85;;;;;;;;;;10351506;28;20037;-71
2023/02/12 09:07:07;;;;;;;33.35;17.02;;;;;;;;;;10349799;28;20579;-76
2023/02/12 09:12:08;;;;;;;36.90;17.93;;;;;;;;;;10347568;28;20030;-73
2023/02/12 09:17:08;;;;;;;35.40;19.13;;;;;;;;;;10350805;28;20057;-73
2023/02/12 09:22:08;;;;;;;46.75;21.85;;;;;;;;;;10368095;23;20553;-72
2023/02/12 09:27:08;;;;;;;39.25;21.88;;;;;;;;;;10294246;28;20026;-75
2023/02/12 09:32:09;;;;;;;38.70;19.77;;;;;;;;;;10339532;22;20141;-71
2023/02/12 09:37:09;;;;;;;38.17;19.52;;;;;;;;;;10379830;28;20284;-75
2023/02/12 09:42:32;;;;;;;45.03;20.10;;;;;;;;;;10376389;28;20360;-73
2023/02/12 09:47:42;;;;;;;38.78;18.20;;;;;;;;;;10376679;28;20676;-74
2023/02/12 09:52:43;;;;;;;39.55;18.98;;;;;;;;;;10392998;28;20029;-74
2023/02/12 09:57:43;;;;;;;44.50;18.57;;;;;;;;;;10374860;28;20488;-72
2023/02/12 10:02:44;;;;;;;37.55;19.92;;;;;;;;;;10378564;28;20380;-72
2023/02/12 10:08:03;;;;;;;40.55;19.27;;;;;;;;;;10378382;28;20125;-73
2023/02/12 10:13:07;;;;;;;44.63;20.92;;;;;;;;;;10374415;28;20037;-75
2023/02/12 10:18:17;;;;;;;38.17;19.13;;;;;;;;;;10393070;28;20038;-73
2023/02/12 10:23:20;;;;;;;39.58;19.20;;;;;;;;;;10371711;28;20112;-73
2023/02/12 10:28:25;;;;;;;42.45;19.80;;;;;;;;;;10346518;28;20061;-78
2023/02/12 10:33:28;;;;;;;44.30;21.52;;;;;;;;;;10341556;28;20054;-76
2023/02/12 10:38:32;;;;;;;44.97;20.90;;;;;;;;;;10337617;28;20084;-79
2023/02/12 10:43:32;;;;;;;46.90;22.33;;;;;;;;;;10350449;28;20036;-70
2023/02/12 10:48:35;;;;;;;38.90;21.02;;;;;;;;;;10344755;28;20030;-74
2023/02/12 10:53:45;;;;;;;48.10;22.02;;;;;;;;;;10352827;28;20103;-77
2023/02/12 10:58:49;;;;;;;50.72;23.50;;;;;;;;;;10358247;28;20019;-71
2023/02/12 11:03:49;;;;;;;50.22;24.65;;;;;;;;;;10357568;28;20519;-77
2023/02/12 11:08:50;;;;;;;51.97;23.77;;;;;;;;;;10352522;28;20017;-72
2023/02/12 11:13:59;;;;;;;51.35;24.17;;;;;;;;;;10354274;28;20272;-77
2023/02/12 11:19:04;;;;;;;45.22;23.23;;;;;;;;;;10353142;28;20030;-77
2023/02/12 11:24:25;;;;;;;47.88;24.63;;;;;;;;;;10338243;28;20133;-76
2023/02/12 11:29:26;;;;;;;44.17;21.92;;;;;;;;;;10335610;28;20032;-78
2023/02/12 11:34:26;;;;;;;46.53;24.13;;;;;;;;;;10347560;28;20061;-76
2023/02/12 11:39:34;;;;;;;46.00;22.20;;;;;;;;;;10352394;28;20026;-72
2023/02/12 11:44:36;;;;;;;48.50;21.38;;;;;;;;;;10330437;28;20026;-75
2023/02/12 11:49:38;;;;;;;47.58;22.92;;;;;;;;;;10337429;28;20037;-73
2023/02/12 11:54:39;;;;;;;41.50;21.50;;;;;;;;;;10351597;28;20034;-72
2023/02/12 11:59:43;;;;;;;42.92;20.65;;;;;;;;;;10336214;28;20021;-73
2023/02/12 12:04:45;;;;;;;40.58;20.48;;;;;;;;;;10337677;28;20363;-72
2023/02/12 12:09:48;;;;;;;46.03;21.00;;;;;;;;;;10355873;28;20042;-73
2023/02/12 12:20:16;;;;;;;53.03;25.73;;;;;;;;;;10376043;28;20033;-73
2023/02/12 12:25:16;;;;;;;45.88;22.65;;;;;;;;;;10343356;28;20029;-76
2023/02/12 12:30:35;;;;;;;45.40;25.23;;;;;;;;;;10340308;28;20391;-72
2023/02/12 12:35:42;;;;;;;51.40;24.92;;;;;;;;;;10361829;28;20638;-71
2023/02/12 12:40:53;;;;;;;45.27;23.00;;;;;;;;;;10337087;28;20137;-74
2023/02/12 12:45:53;;;;;;;52.13;25.67;;;;;;;;;;10356512;28;20030;-78
2023/02/12 12:51:13;;;;;;;52.03;25.67;;;;;;;;;;10361671;28;20425;-74
2023/02/12 12:56:13;;;;;;;43.95;23.40;;;;;;;;;;10357429;28;20030;-79
2023/02/12 13:01:32;;;;;;;51.03;24.88;;;;;;;;;;10340050;28;20029;-78
2023/02/12 13:06:51;;;;;;;47.10;23.75;;;;;;;;;;10354648;28;20403;-77
2023/02/12 13:12:07;;;;;;;58.63;26.88;;;;;;;;;;10352828;28;20034;-76
2023/02/12 13:17:26;;;;;;;44.92;23.20;;;;;;;;;;10353606;28;20065;-80
2023/02/12 13:22:26;;;;;;;44.33;22.70;;;;;;;;;;10337152;28;20153;-72
2023/02/12 13:27:29;;;;;;;45.65;24.52;;;;;;;;;;10343516;28;20412;-79
2023/02/12 13:32:39;;;;;;;44.33;23.55;;;;;;;;;;10341397;28;20057;-72
2023/02/12 13:37:44;;;;;;;46.88;23.08;;;;;;;;;;10356388;28;20085;-71
2023/02/12 13:43:03;;;;;;;57.55;25.48;;;;;;;;;;10341143;28;20033;-74
2023/02/12 13:48:12;;;;;;;55.53;26.17;;;;;;;;;;10357712;28;20108;-74
2023/02/12 13:53:24;;;;;;;52.75;25.58;;;;;;;;;;10355819;28;20120;-74
2023/02/12 13:58:34;;;;;;;49.22;24.33;;;;;;;;;;10338609;28;20072;-77
2023/02/12 14:03:35;;;;;;;53.42;27.05;;;;;;;;;;10355096;28;20539;-77
2023/02/12 14:08:41;;;;;;;49.35;25.55;;;;;;;;;;10339175;28;20063;-74
2023/02/12 14:13:50;;;;;;;52.13;25.30;;;;;;;;;;10352988;28;20029;-74
2023/02/12 14:18:50;;;;;;;54.17;25.13;;;;;;;;;;10350989;28;20033;-75
2023/02/12 14:23:51;;;;;;;55.57;27.37;;;;;;;;;;10356063;28;20021;-75
2023/02/12 14:28:56;;;;;;;54.95;27.63;;;;;;;;;;10337498;28;20329;-74
2023/02/12 14:34:10;;;;;;;53.72;28.17;;;;;;;;;;10353483;28;20070;-71
2023/02/12 14:39:19;;;;;;;68.10;29.88;;;;;;;;;;10353513;28;20061;-75
2023/02/12 14:44:21;;;;;;;58.33;28.23;;;;;;;;;;10338204;28;20356;-74
2023/02/12 14:49:21;;;;;;;54.92;26.92;;;;;;;;;;10354201;28;20018;-79
2023/02/12 14:54:30;;;;;;;54.50;24.95;;;;;;;;;;10353594;28;20083;-73
2023/02/12 14:59:33;;;;;;;56.58;27.73;;;;;;;;;;10355167;28;20029;-72
2023/02/12 15:04:37;;;;;;;59.83;28.02;;;;;;;;;;10348247;28;20416;-77
2023/02/12 15:09:56;;;;;;;53.03;27.33;;;;;;;;;;10334842;28;20068;-81
2023/02/12 15:15:11;;;;;;;58.70;28.15;;;;;;;;;;10350457;28;20080;-77
2023/02/12 15:20:15;;;;;;;55.60;28.48;;;;;;;;;;10351670;28;20071;-73
2023/02/12 15:25:28;;;;;;;58.17;28.75;;;;;;;;;;10355121;28;20492;-77
2023/02/12 15:30:30;;;;;;;56.92;29.13;;;;;;;;;;10354545;28;20241;-79
2023/02/12 15:35:32;;;;;;;59.38;28.30;;;;;;;;;;10351003;28;20079;-75
2023/02/12 15:40:33;;;;;;;68.13;30.98;;;;;;;;;;10341108;28;20147;-77
2023/02/12 15:45:35;;;;;;;55.47;27.73;;;;;;;;;;10357648;28;20136;-75
2023/02/12 15:50:57;;;;;;;61.67;28.33;;;;;;;;;;10341591;28;20109;-77
2023/02/12 15:55:59;;;;;;;63.17;27.30;;;;;;;;;;10342023;28;20042;-80
2023/02/12 16:01:00;;;;;;;62.40;29.17;;;;;;;;;;10345228;28;20040;-79
2023/02/12 16:06:10;;;;;;;69.90;31.15;;;;;;;;;;10345632;28;20480;-76
2023/02/12 16:11:14;;;;;;;67.75;31.77;;;;;;;;;;10340257;28;20539;-76
2023/02/12 16:16:18;;;;;;;68.22;31.50;;;;;;;;;;10343003;28;20022;-72
2023/02/12 16:21:20;;;;;;;69.55;34.28;;;;;;;;;;10360469;28;20401;-70
2023/02/12 16:26:22;;;;;;;59.33;31.63;;;;;;;;;;10361893;28;20030;-71
2023/02/12 16:31:24;;;;;;;74.25;32.40;;;;;;;;;;10339517;28;20209;-72
2023/02/12 16:36:25;;;;;;;68.93;33.35;;;;;;;;;;10343212;28;20044;-76
2023/02/12 16:41:26;;;;;;;76.70;33.83;;;;;;;;;;10359374;28;20017;-75
2023/02/12 16:46:28;;;;;;;70.85;34.75;;;;;;;;;;10345479;28;20099;-71
2023/02/12 16:51:32;;;;;;;72.82;34.40;;;;;;;;;;10340645;28;20021;-73
2023/02/12 16:56:37;;;;;;;77.47;37.50;;;;;;;;;;10337040;28;20142;-74
2023/02/12 17:01:37;;;;;;;79.30;38.38;;;;;;;;;;10340726;28;20026;-71
2023/02/12 17:06:37;;;;;;;83.43;38.05;;;;;;;;;;10344808;28;20492;-73
2023/02/12 17:11:38;;;;;;;92.95;43.05;;;;;;;;;;10358045;28;20041;-78
2023/02/12 17:16:38;;;;;;;91.78;41.67;;;;;;;;;;10355015;28;20104;-73
2023/02/12 17:21:42;;;;;;;89.70;44.28;;;;;;;;;;10358617;28;20026;-74
2023/02/12 17:26:43;;;;;;;103.05;46.92;;;;;;;;;;10339729;28;20097;-72
2023/02/12 17:31:44;;;;;;;88.33;42.00;;;;;;;;;;10361276;28;20049;-78
2023/02/12 17:36:44;;;;;;;96.85;45.08;;;;;;;;;;10326768;28;20022;-73
2023/02/12 17:41:45;;;;;;;98.35;45.47;;;;;;;;;;10355282;28;20124;-74
2023/02/12 17:46:45;;;;;;;91.43;46.22;;;;;;;;;;10358234;28;20021;-76
2023/02/12 17:51:46;;;;;;;96.38;47.83;;;;;;;;;;10339369;28;20026;-78
2023/02/12 17:56:46;;;;;;;103.18;46.35;;;;;;;;;;10354699;28;20033;-74
2023/02/12 18:01:46;;;;;;;92.78;45.03;;;;;;;;;;10338354;28;20105;-75
2023/02/12 18:06:46;;;;;;;105.40;50.40;;;;;;;;;;10355158;28;20022;-75
2023/02/12 18:11:47;;;;;;;111.33;50.63;;;;;;;;;;10352280;28;20057;-74
2023/02/12 18:16:47;;;;;;;102.40;48.55;;;;;;;;;;10377087;23;20529;-76
2023/02/12 18:21:47;;;;;;;101.63;47.15;;;;;;;;;;10395660;28;20025;-78
2023/02/12 18:26:48;;;;;;;87.63;42.58;;;;;;;;;;10393631;28;20082;-75
2023/02/12 18:31:48;;;;;;;82.63;39.58;;;;;;;;;;10376592;28;20099;-72
2023/02/12 18:36:49;;;;;;;86.78;42.47;;;;;;;;;;10377329;28;20032;-75
2023/02/12 18:41:49;;;;;;;73.47;39.67;;;;;;;;;;10374559;28;20096;-77
2023/02/12 18:46:50;;;;;;;90.40;42.03;;;;;;;;;;10375182;28;20033;-73
2023/02/12 18:51:50;;;;;;;91.90;43.97;;;;;;;;;;10393793;28;20048;-78
2023/02/12 18:56:51;;;;;;;84.68;41.38;;;;;;;;;;10376578;28;20029;-74
2023/02/12 19:01:52;;;;;;;89.57;42.38;;;;;;;;;;10376465;28;20056;-74
2023/02/12 19:06:53;;;;;;;80.07;43.23;;;;;;;;;;10376028;28;20032;-76
2023/02/12 19:11:54;;;;;;;97.65;46.47;;;;;;;;;;10375388;28;20790;-73
2023/02/12 19:16:54;;;;;;;82.55;41.67;;;;;;;;;;10375393;28;20519;-74
2023/02/12 19:21:54;;;;;;;81.00;41.47;;;;;;;;;;10373689;28;20025;-70
2023/02/12 19:26:55;;;;;;;112.30;49.28;;;;;;;;;;10389734;28;20030;-80
2023/02/12 19:31:55;;;;;;;90.45;44.10;;;;;;;;;;10378790;28;20507;-74
2023/02/12 19:36:55;;;;;;;101.43;44.47;;;;;;;;;;10374516;28;20033;-73
2023/02/12 19:41:56;;;;;;;107.80;48.15;;;;;;;;;;10372451;28;20064;-78
2023/02/12 19:46:56;;;;;;;108.70;47.53;;;;;;;;;;10380070;28;20133;-78
2023/02/12 19:51:56;;;;;;;111.75;52.67;;;;;;;;;;10373307;28;20029;-74
2023/02/12 19:56:57;;;;;;;111.15;51.33;;;;;;;;;;10392349;28;20025;-74
2023/02/12 20:01:57;;;;;;;104.10;49.13;;;;;;;;;;10371304;28;20033;-72
2023/02/12 20:06:57;;;;;;;111.00;49.35;;;;;;;;;;10371162;28;20037;-73
2023/02/12 20:11:58;;;;;;;104.07;49.22;;;;;;;;;;10371382;28;20026;-75
2023/02/12 20:16:59;;;;;;;116.97;52.70;;;;;;;;;;10376517;28;20081;-79
2023/02/12 20:22:00;;;;;;;112.65;50.80;;;;;;;;;;10373779;28;20026;-79
2023/02/12 20:27:01;;;;;;;97.65;47.47;;;;;;;;;;10374103;28;20551;-73
2023/02/12 20:32:01;;;;;;;106.77;50.30;;;;;;;;;;10376154;28;20031;-73
2023/02/12 20:37:03;;;;;;;106.60;47.53;;;;;;;;;;10379199;28;20280;-81
2023/02/12 20:42:03;;;;;;;97.80;46.53;;;;;;;;;;10393290;28;20029;-76
2023/02/12 20:47:04;;;;;;;92.70;47.05;;;;;;;;;;10397788;28;20466;-81
2023/02/12 20:52:04;;;;;;;111.20;48.40;;;;;;;;;;10394285;28;20412;-75
2023/02/12 20:57:05;;;;;;;97.03;47.50;;;;;;;;;;10401618;28;20061;-76
2023/02/12 21:02:06;;;;;;;103.68;50.03;;;;;;;;;;10391596;28;20027;-76
2023/02/12 21:07:06;;;;;;;104.07;49.03;;;;;;;;;;10398272;28;20036;-77
2023/02/12 21:12:07;;;;;;;98.53;46.90;;;;;;;;;;10377118;28;20547;-77
2023/02/12 21:17:07;;;;;;;107.75;46.00;;;;;;;;;;10397896;28;20315;-80
2023/02/12 21:22:08;;;;;;;99.53;43.50;;;;;;;;;;10400969;28;20022;-77
2023/02/12 21:27:10;;;;;;;103.32;48.58;;;;;;;;;;10383414;28;20028;-76
2023/02/12 21:32:10;;;;;;;90.78;47.28;;;;;;;;;;10362607;28;20025;-73
2023/02/12 21:37:11;;;;;;;99.38;44.70;;;;;;;;;;10378809;28;20028;-76
2023/02/12 21:42:11;;;;;;;96.38;47.33;;;;;;;;;;10374672;28;20806;-76
2023/02/12 21:47:11;;;;;;;95.07;43.33;;;;;;;;;;10377807;28;20021;-75
2023/02/12 21:52:11;;;;;;;97.00;46.08;;;;;;;;;;10376134;28;20023;-75
2023/02/12 21:57:16;;;;;;;96.60;45.13;;;;;;;;;;10377195;28;20036;-77
2023/02/12 22:02:17;;;;;;;87.57;41.33;;;;;;;;;;10385015;28;20626;-76
2023/02/12 22:07:17;;;;;;;82.38;39.47;;;;;;;;;;10368068;22;20050;-76
2023/02/12 22:12:18;;;;;;;84.18;37.63;;;;;;;;;;10304778;28;20447;-75
2023/02/12 22:17:18;;;;;;;84.70;38.08;;;;;;;;;;10308648;28;20022;-72
2023/02/12 22:22:18;;;;;;;91.85;40.55;;;;;;;;;;10319016;28;20026;-76
2023/02/12 22:27:19;;;;;;;89.20;40.65;;;;;;;;;;10308970;28;20023;-78
2023/02/12 22:32:19;;;;;;;89.78;41.67;;;;;;;;;;10319553;28;20022;-74
2023/02/12 22:37:20;;;;;;;89.88;42.65;;;;;;;;;;10324989;28;20053;-77
2023/02/12 22:42:20;;;;;;;93.35;42.20;;;;;;;;;;10321849;28;20030;-76
2023/02/12 22:47:21;;;;;;;96.68;43.60;;;;;;;;;;10326090;28;20022;-75
2023/02/12 22:52:22;;;;;;;89.28;41.22;;;;;;;;;;10324465;28;20022;-73
2023/02/12 22:57:22;;;;;;;90.53;41.88;;;;;;;;;;10311667;28;20049;-75
2023/02/12 23:02:23;;;;;;;105.93;47.97;;;;;;;;;;10295564;28;20018;-76
2023/02/12 23:07:23;;;;;;;102.90;44.85;;;;;;;;;;10302112;28;20058;-76
2023/02/12 23:12:23;;;;;;;100.03;46.45;;;;;;;;;;10318405;28;20019;-78
2023/02/12 23:17:23;;;;;;;110.07;43.87;;;;;;;;;;10318238;28;20405;-73
2023/02/12 23:22:24;;;;;;;124.22;47.83;;;;;;;;;;10317877;28;20027;-79
2023/02/12 23:27:24;;;;;;;119.93;50.05;;;;;;;;;;10301735;28;20019;-73
2023/02/12 23:32:24;;;;;;;107.30;46.00;;;;;;;;;;10317476;28;20026;-72
2023/02/12 23:37:24;;;;;;;128.07;48.55;;;;;;;;;;10318738;28;20034;-75
2023/02/12 23:42:25;;;;;;;117.00;48.08;;;;;;;;;;10317693;28;20027;-77
2023/02/12 23:47:25;;;;;;;120.07;48.13;;;;;;;;;;10319818;28;20026;-76
2023/02/12 23:52:25;;;;;;;125.55;50.85;;;;;;;;;;10316855;28;20111;-80
2023/02/12 23:57:25;;;;;;;108.97;46.73;;;;;;;;;;10316707;28;20030;-77
